Time;durP1;ratioP1;P1;durP2;ratioP2;P2;SDS_P1;SDS_P2;PMS_P1;PMS_P2;Temp;Humidity;BMP_temperature;BMP_pressure;BME280_temperature;BME280_humidity;BME280_pressure;Samples;Min_cycle;Max_cycle;Signal;HPM_P1;HPM_P2
2022/01/04 00:01:48;;;;;;;12.43;11.63;;;;;;;4.76;77.45;92801.63;5047287;28;20240;-75
2022/01/04 00:04:14;;;;;;;11.73;10.93;;;;;;;4.88;77.23;92805.69;5045781;28;20194;-75
2022/01/04 00:06:39;;;;;;;13.50;12.50;;;;;;;4.65;78.96;92787.00;5049500;28;20233;-75
2022/01/04 00:09:07;;;;;;;12.50;11.50;;;;;;;4.68;77.33;92743.38;5048599;28;20240;-75
2022/01/04 00:14:19;;;;;;;12.13;11.13;;;;;;;4.69;77.16;92744.91;4999309;28;20205;-73
2022/01/04 00:16:45;;;;;;;15.13;13.70;;;;;;;4.61;78.79;92778.94;5046662;28;20261;-74
2022/01/04 00:19:10;;;;;;;15.33;12.30;;;;;;;4.52;79.31;92759.69;5033541;28;20269;-73
2022/01/04 00:21:37;;;;;;;15.27;13.70;;;;;;;4.65;78.73;92772.25;5046999;28;20230;-73
2022/01/04 00:24:03;;;;;;;13.80;12.50;;;;;;;4.77;77.98;92777.34;5046939;28;20191;-74
2022/01/04 00:26:29;;;;;;;13.10;11.93;;;;;;;4.52;79.44;92784.75;5049586;28;20282;-74
2022/01/04 00:28:55;;;;;;;13.47;12.33;;;;;;;4.85;77.60;92788.06;5049881;28;20190;-74
2022/01/04 00:31:20;;;;;;;12.37;11.43;;;;;;;4.36;78.99;92772.63;5047743;28;20217;-74
2022/01/04 00:33:46;;;;;;;12.07;11.17;;;;;;;4.63;79.26;92804.56;5047746;28;20193;-73
2022/01/04 00:36:11;;;;;;;11.10;10.20;;;;;;;4.37;78.76;92774.19;5047107;28;20298;-73
2022/01/04 00:38:37;;;;;;;11.10;10.43;;;;;;;4.68;77.91;92805.41;5047314;28;20201;-73
2022/01/04 00:41:02;;;;;;;10.90;10.20;;;;;;;4.93;76.84;92813.50;5048460;28;20240;-73
2022/01/04 00:43:28;;;;;;;11.80;10.93;;;;;;;4.95;76.21;92815.84;5046994;28;20190;-74
2022/01/04 00:45:53;;;;;;;11.90;11.07;;;;;;;4.52;78.05;92793.28;5049056;28;20218;-74
2022/01/04 00:50:45;;;;;;;13.13;12.23;;;;;;;4.90;76.66;92820.97;5048196;28;20330;-73
2022/01/04 00:53:11;;;;;;;11.93;11.23;;;;;;;4.83;76.75;92808.19;5049345;28;20186;-74
2022/01/04 00:55:37;;;;;;;12.97;12.07;;;;;;;4.75;77.06;92811.19;5047244;28;20221;-74
2022/01/04 00:58:03;;;;;;;12.60;11.80;;;;;;;4.74;76.63;92798.50;5049102;28;20190;-74
2022/01/04 01:00:29;;;;;;;11.07;10.27;;;;;;;4.66;77.44;92793.72;5048169;28;20185;-73
2022/01/04 01:02:55;;;;;;;11.53;10.90;;;;;;;4.61;77.42;92775.56;5045769;28;20178;-73
2022/01/04 01:05:26;;;;;;;11.20;10.60;;;;;;;4.73;77.28;92792.53;5047577;28;20262;-73
2022/01/04 01:07:55;;;;;;;12.10;11.30;;;;;;;4.66;77.01;92776.44;5046788;28;20209;-73
2022/01/04 01:12:52;;;;;;;12.67;11.80;;;;;;;4.53;77.95;92769.00;5048693;28;20177;-73
2022/01/04 01:15:17;;;;;;;12.10;11.07;;;;;;;4.61;77.66;92763.44;5045499;28;20221;-73
2022/01/04 01:17:43;;;;;;;11.57;10.77;;;;;;;4.65;77.64;92780.00;5046620;28;20301;-73
2022/01/04 01:20:10;;;;;;;11.03;10.40;;;;;;;4.76;77.06;92780.94;5046681;28;20193;-73
2022/01/04 01:22:36;;;;;;;12.03;11.33;;;;;;;4.66;76.53;92758.31;5046295;28;20234;-72
2022/01/04 01:25:03;;;;;;;11.33;10.63;;;;;;;4.63;77.47;92765.78;5047778;28;20197;-73
2022/01/04 01:27:28;;;;;;;12.80;11.93;;;;;;;4.73;77.19;92771.09;5047413;28;20735;-73
2022/01/04 01:29:54;;;;;;;11.87;11.10;;;;;;;4.62;77.41;92769.38;5050256;28;20212;-73
2022/01/04 01:32:19;;;;;;;11.77;11.00;;;;;;;4.53;77.67;92766.41;5050711;28;20226;-73
2022/01/04 01:34:45;;;;;;;12.03;11.23;;;;;;;4.27;77.65;92730.91;5047393;28;20251;-73
2022/01/04 01:37:10;;;;;;;11.00;10.07;;;;;;;4.57;78.09;92769.31;5049720;28;20230;-74
2022/01/04 01:39:36;;;;;;;10.57;9.87;;;;;;;4.59;77.41;92765.47;5051051;28;20217;-73
2022/01/04 01:42:03;;;;;;;11.20;10.50;;;;;;;4.36;78.67;92755.31;5050286;28;20233;-73
2022/01/04 01:44:31;;;;;;;10.73;9.97;;;;;;;4.50;77.93;92761.72;5052025;28;20185;-74
2022/01/04 01:46:56;;;;;;;11.27;10.57;;;;;;;4.26;79.03;92747.44;5050640;28;20245;-74
2022/01/04 01:49:22;;;;;;;10.80;10.10;;;;;;;3.88;81.21;92773.19;5049481;28;20236;-74
2022/01/04 01:51:48;;;;;;;11.07;10.43;;;;;;;3.94;81.20;92777.41;5051472;28;20242;-73
2022/01/04 01:54:13;;;;;;;12.13;11.13;;;;;;;3.95;80.92;92753.16;5049151;28;20192;-74
2022/01/04 01:56:39;;;;;;;13.57;12.27;;;;;;;3.81;81.90;92761.44;5051052;28;20218;-74
2022/01/04 01:59:04;;;;;;;13.27;12.27;;;;;;;3.66;83.58;92766.38;5051840;28;20225;-75
2022/01/04 02:01:29;;;;;;;10.17;9.57;;;;;;;3.49;84.40;92750.81;5048282;28;20225;-74
2022/01/04 02:03:55;;;;;;;10.53;9.90;;;;;;;3.43;84.33;92751.75;5035180;28;20186;-74
2022/01/04 02:06:22;;;;;;;10.90;10.30;;;;;;;3.80;82.72;92773.56;5051025;28;21038;-74
2022/01/04 02:08:47;;;;;;;10.67;9.97;;;;;;;3.97;81.07;92761.44;5050430;28;20197;-74
2022/01/04 02:11:13;;;;;;;12.13;11.03;;;;;;;4.19;79.79;92780.38;5034250;28;20236;-74
2022/01/04 02:13:38;;;;;;;11.80;11.00;;;;;;;4.11;79.03;92767.09;5048412;28;20202;-74
2022/01/04 02:16:08;;;;;;;11.07;10.47;;;;;;;4.16;78.78;92764.56;5051419;28;20265;-74
2022/01/04 02:18:33;;;;;;;11.90;11.20;;;;;;;4.05;80.39;92761.06;5050397;28;20195;-75
2022/01/04 02:20:59;;;;;;;11.37;10.63;;;;;;;4.04;79.71;92746.59;5048555;28;20228;-74
2022/01/04 02:23:24;;;;;;;11.77;10.53;;;;;;;4.00;79.43;92766.13;5049688;28;20210;-74
2022/01/04 02:25:49;;;;;;;10.73;9.90;;;;;;;3.98;80.36;92764.81;5047355;28;20218;-74
2022/01/04 02:28:20;;;;;;;11.27;10.70;;;;;;;4.08;79.17;92757.22;5049843;28;20193;-74
2022/01/04 02:30:47;;;;;;;11.17;10.37;;;;;;;4.15;78.18;92763.81;5050814;28;20241;-73
2022/01/04 02:33:13;;;;;;;10.67;9.93;;;;;;;3.84;78.29;92743.69;5047662;28;20193;-73
2022/01/04 02:35:38;;;;;;;11.43;10.73;;;;;;;3.96;79.23;92765.03;5048297;28;20221;-74
2022/01/04 02:38:04;;;;;;;11.50;10.53;;;;;;;3.69;78.76;92722.00;5032853;28;20198;-74
2022/01/04 02:40:31;;;;;;;11.07;10.47;;;;;;;3.74;78.73;92735.78;5046945;28;20264;-74
2022/01/04 02:42:58;;;;;;;10.57;9.77;;;;;;;3.97;78.62;92756.28;5048103;28;20254;-74
2022/01/04 02:45:24;;;;;;;10.07;9.47;;;;;;;3.83;78.80;92742.09;5047669;28;20187;-74
2022/01/04 02:47:50;;;;;;;10.70;9.90;;;;;;;3.78;79.71;92756.75;5048067;28;20225;-74
2022/01/04 02:50:16;;;;;;;10.67;10.03;;;;;;;3.69;80.03;92727.94;5047837;28;20214;-74
2022/01/04 02:52:42;;;;;;;10.70;10.07;;;;;;;3.71;80.23;92748.34;5047699;28;20220;-74
2022/01/04 02:55:10;;;;;;;11.53;10.67;;;;;;;3.91;79.02;92744.31;5046731;28;20202;-73
2022/01/04 02:57:36;;;;;;;10.63;10.03;;;;;;;3.80;79.53;92752.91;5048982;28;20226;-74
2022/01/04 03:00:05;;;;;;;11.37;10.67;;;;;;;3.58;80.36;92744.28;5047688;28;20194;-73
2022/01/04 03:02:31;;;;;;;11.10;10.30;;;;;;;3.54;78.76;92698.50;5046820;28;20226;-75
2022/01/04 03:04:56;;;;;;;12.30;11.23;;;;;;;3.89;78.44;92728.25;5046002;28;20201;-74
2022/01/04 03:07:21;;;;;;;12.50;11.60;;;;;;;3.76;78.67;92702.75;5046801;28;20252;-73
2022/01/04 03:09:47;;;;;;;11.13;10.43;;;;;;;3.93;78.04;92734.53;5032033;28;20254;-74
2022/01/04 03:12:12;;;;;;;10.27;9.50;;;;;;;3.85;78.43;92732.34;5047227;28;20230;-74
2022/01/04 03:14:38;;;;;;;10.27;9.67;;;;;;;3.73;78.64;92720.50;5048521;28;21088;-74
2022/01/04 03:17:04;;;;;;;11.27;10.67;;;;;;;3.66;79.37;92735.38;5048023;28;20237;-74
2022/01/04 03:19:30;;;;;;;10.30;9.70;;;;;;;3.61;79.97;92727.56;5030158;28;20202;-74
2022/01/04 03:21:55;;;;;;;10.23;9.73;;;;;;;3.64;79.61;92740.78;5006758;28;1183205;-74
2022/01/04 03:24:20;;;;;;;10.03;9.53;;;;;;;3.54;80.86;92740.59;5051060;28;20245;-74
2022/01/04 03:26:46;;;;;;;9.90;9.17;;;;;;;3.54;80.14;92730.28;5048129;28;20236;-74
2022/01/04 03:29:13;;;;;;;8.63;8.20;;;;;;;3.67;78.88;92724.81;5050655;28;20256;-74
2022/01/04 03:31:40;;;;;;;9.93;9.23;;;;;;;3.67;78.14;92735.16;5047882;28;20230;-75
2022/01/04 03:34:06;;;;;;;10.83;10.23;;;;;;;3.74;77.86;92737.56;5049764;28;20253;-75
2022/01/04 03:36:32;;;;;;;9.60;9.10;;;;;;;3.75;77.79;92741.72;5047407;28;20259;-74
2022/01/04 03:38:58;;;;;;;9.53;9.03;;;;;;;3.51;78.51;92748.81;5045814;28;20190;-75
2022/01/04 03:41:26;;;;;;;10.47;9.87;;;;;;;3.58;78.24;92736.53;5049081;28;20299;-75
2022/01/04 03:43:53;;;;;;;10.50;9.80;;;;;;;3.70;78.87;92755.34;5049710;28;20197;-75
2022/01/04 03:46:19;;;;;;;10.70;10.07;;;;;;;3.48;79.43;92735.56;5044619;28;20279;-75
2022/01/04 03:48:45;;;;;;;10.53;9.83;;;;;;;3.70;77.88;92751.97;5048681;28;20182;-75
2022/01/04 03:51:11;;;;;;;10.20;9.37;;;;;;;3.54;79.00;92742.38;5031319;28;20233;-76
2022/01/04 03:53:37;;;;;;;10.00;8.93;;;;;;;3.66;77.84;92749.06;5047794;28;20190;-75
2022/01/04 03:56:03;;;;;;;9.60;9.10;;;;;;;3.72;77.50;92755.88;5049017;28;20234;-75
2022/01/04 03:58:30;;;;;;;10.80;10.30;;;;;;;3.63;76.88;92746.94;5047816;28;20194;-75
2022/01/04 04:00:55;;;;;;;11.00;10.40;;;;;;;3.59;77.09;92743.28;5032087;28;21010;-75
2022/01/04 04:03:21;;;;;;;9.70;9.07;;;;;;;3.43;78.17;92731.13;5048190;28;20187;-75
2022/01/04 04:05:46;;;;;;;10.63;10.03;;;;;;;3.50;77.75;92739.50;5046529;28;20232;-74
2022/01/04 04:08:12;;;;;;;10.33;9.63;;;;;;;3.35;78.32;92734.06;5049557;28;20190;-74
2022/01/04 04:10:37;;;;;;;9.60;9.07;;;;;;;3.08;79.65;92743.41;5048716;28;20229;-74
2022/01/04 04:13:03;;;;;;;9.67;9.13;;;;;;;3.21;78.96;92745.69;5048069;28;20183;-74
2022/01/04 04:15:29;;;;;;;10.97;10.17;;;;;;;3.29;78.83;92740.16;5048354;28;20731;-74
2022/01/04 04:17:54;;;;;;;12.73;11.63;;;;;;;3.38;77.17;92725.09;5045375;28;20257;-74
2022/01/04 04:20:20;;;;;;;10.80;10.10;;;;;;;3.35;77.27;92726.31;5048804;28;20236;-74
2022/01/04 04:22:47;;;;;;;11.07;10.37;;;;;;;3.42;77.30;92734.72;5048981;28;21237;-73
2022/01/04 04:25:13;;;;;;;10.77;10.17;;;;;;;3.46;76.59;92732.44;5046836;28;20210;-74
2022/01/04 04:27:39;;;;;;;10.23;9.63;;;;;;;3.00;78.20;92728.28;5048923;28;20198;-75
2022/01/04 04:30:06;;;;;;;10.33;9.73;;;;;;;3.18;77.20;92739.19;5047460;28;20216;-75
2022/01/04 04:32:31;;;;;;;11.93;11.17;;;;;;;3.24;77.54;92755.53;5047152;28;20226;-75
2022/01/04 04:34:57;;;;;;;11.93;11.03;;;;;;;2.86;80.80;92737.28;5045132;28;20209;-75
2022/01/04 04:37:23;;;;;;;11.70;10.90;;;;;;;2.84;81.62;92758.13;5043740;28;20221;-75
2022/01/04 04:39:49;;;;;;;12.23;11.40;;;;;;;2.84;81.49;92759.94;5046168;28;20194;-74
2022/01/04 04:42:14;;;;;;;12.43;11.63;;;;;;;2.57;80.81;92722.81;5044845;28;20236;-75
2022/01/04 04:44:40;;;;;;;12.47;11.57;;;;;;;3.10;79.48;92760.19;5044254;28;20285;-74
2022/01/04 04:47:05;;;;;;;15.80;14.50;;;;;;;3.21;79.24;92761.94;5045951;28;20226;-76
2022/01/04 04:49:31;;;;;;;15.27;13.67;;;;;;;3.19;79.72;92763.19;5045350;28;20213;-75
2022/01/04 04:51:59;;;;;;;14.13;13.03;;;;;;;3.15;80.12;92762.06;5048720;28;20214;-75
2022/01/04 04:54:27;;;;;;;13.27;12.13;;;;;;;3.11;79.65;92750.66;5046698;28;20202;-84
2022/01/04 04:56:53;;;;;;;15.17;13.87;;;;;;;3.17;79.09;92760.06;5047277;28;20229;-72
2022/01/04 04:59:19;;;;;;;13.47;12.37;;;;;;;3.16;79.40;92761.06;5046415;28;20211;-73
2022/01/04 05:01:44;;;;;;;13.00;12.03;;;;;;;2.98;79.53;92753.50;5047089;28;20248;-73
2022/01/04 05:04:09;;;;;;;13.27;11.97;;;;;;;2.92;79.80;92751.84;5048953;28;20220;-74
2022/01/04 05:06:35;;;;;;;13.37;12.33;;;;;;;2.84;79.52;92739.31;5044722;28;20225;-74
2022/01/04 05:09:00;;;;;;;14.00;12.70;;;;;;;2.70;80.97;92748.31;5047288;28;20192;-70
2022/01/04 05:11:26;;;;;;;13.20;12.00;;;;;;;2.65;82.58;92766.22;5045210;28;20234;-73
2022/01/04 05:13:52;;;;;;;12.67;11.63;;;;;;;2.90;81.24;92753.84;5047820;28;20205;-72
2022/01/04 05:16:17;;;;;;;13.23;12.13;;;;;;;2.96;79.90;92743.41;5048104;28;20370;-75
2022/01/04 05:18:43;;;;;;;13.73;12.77;;;;;;;3.13;79.86;92762.31;5046944;28;20209;-74
2022/01/04 05:21:08;;;;;;;12.67;11.60;;;;;;;3.17;80.01;92766.00;5047904;28;20250;-74
2022/01/04 05:23:34;;;;;;;11.50;10.77;;;;;;;3.16;78.79;92763.63;5044361;28;20630;-75
2022/01/04 05:25:59;;;;;;;11.50;10.73;;;;;;;2.95;79.64;92757.34;5045478;28;20230;-74
2022/01/04 05:28:25;;;;;;;11.83;11.20;;;;;;;2.86;80.45;92752.75;5046170;28;20165;-74
2022/01/04 05:30:50;;;;;;;11.53;10.73;;;;;;;2.99;80.63;92757.63;5043782;28;20233;-75
2022/01/04 05:33:16;;;;;;;14.43;13.33;;;;;;;3.05;82.81;92756.75;5045979;28;20197;-75
2022/01/04 05:35:41;;;;;;;16.10;14.50;;;;;;;3.01;80.10;92753.03;5043790;28;20259;-75
2022/01/04 05:38:07;;;;;;;12.23;11.33;;;;;;;3.25;78.76;92763.03;5046245;28;20189;-72
2022/01/04 05:40:33;;;;;;;10.47;9.90;;;;;;;3.08;78.24;92751.13;5045228;28;20229;-73
2022/01/04 05:42:58;;;;;;;10.83;10.10;;;;;;;3.18;77.69;92752.09;5045223;28;20189;-74
2022/01/04 05:45:24;;;;;;;10.87;10.17;;;;;;;3.32;77.40;92752.59;5045406;28;20177;-73
2022/01/04 05:47:49;;;;;;;9.97;9.27;;;;;;;3.29;76.30;92753.06;5045440;28;20309;-73
2022/01/04 05:50:15;;;;;;;10.70;10.20;;;;;;;3.20;76.91;92749.28;5026610;28;20217;-73
2022/01/04 05:52:40;;;;;;;10.30;9.70;;;;;;;3.16;76.68;92748.16;5046685;28;20258;-73
2022/01/04 05:55:06;;;;;;;10.97;10.27;;;;;;;3.24;76.28;92750.38;5044461;28;20202;-73
2022/01/04 05:57:32;;;;;;;10.93;10.10;;;;;;;3.31;76.14;92740.72;5045347;28;20297;-73
2022/01/04 05:59:58;;;;;;;11.17;10.47;;;;;;;3.19;75.55;92737.41;5045823;28;20194;-73
2022/01/04 06:02:24;;;;;;;11.63;10.57;;;;;;;3.20;76.31;92737.19;5044457;28;20289;-73
2022/01/04 06:04:50;;;;;;;12.53;11.63;;;;;;;3.12;77.23;92747.06;5046464;28;20198;-73
2022/01/04 06:07:15;;;;;;;11.00;10.47;;;;;;;3.27;76.04;92744.75;5043694;28;20287;-73
2022/01/04 06:09:44;;;;;;;10.43;9.83;;;;;;;3.19;76.49;92752.88;5045859;28;20210;-73
2022/01/04 06:15:03;;;;;;;9.73;9.07;;;;;;;3.14;77.24;92747.63;5043397;28;20239;-73
2022/01/04 06:17:32;;;;;;;10.43;9.67;;;;;;;3.35;75.65;92754.72;5049875;28;20221;-74
2022/01/04 06:19:58;;;;;;;14.00;12.67;;;;;;;3.63;73.68;92749.53;5048768;28;20186;-73
2022/01/04 06:22:25;;;;;;;10.83;10.13;;;;;;;3.67;73.70;92745.47;5045932;28;20289;-74
2022/01/04 06:24:51;;;;;;;12.03;11.23;;;;;;;3.13;75.57;92713.31;5051157;28;20214;-73
2022/01/04 06:27:17;;;;;;;12.17;11.30;;;;;;;3.55;76.07;92746.56;5047834;28;20220;-75
2022/01/04 06:29:42;;;;;;;12.23;11.33;;;;;;;3.57;75.59;92739.34;5048384;28;20206;-74
2022/01/04 06:32:10;;;;;;;12.43;11.47;;;;;;;3.28;77.20;92746.34;5050031;28;20233;-75
2022/01/04 06:34:35;;;;;;;12.23;11.03;;;;;;;3.61;76.34;92738.63;5046670;28;20194;-72
2022/01/04 06:37:01;;;;;;;11.23;10.47;;;;;;;3.74;76.01;92734.97;5049909;28;20214;-71
2022/01/04 06:39:27;;;;;;;12.20;11.30;;;;;;;3.77;76.02;92734.50;5049284;28;20747;-73
2022/01/04 06:41:53;;;;;;;11.03;10.20;;;;;;;3.83;76.45;92734.34;5045722;28;20222;-76
2022/01/04 06:44:18;;;;;;;10.93;10.23;;;;;;;3.47;76.74;92723.69;5050696;28;20201;-74
2022/01/04 06:46:45;;;;;;;10.47;9.47;;;;;;;3.54;76.28;92719.94;5047894;28;20225;-74
2022/01/04 06:49:15;;;;;;;11.87;11.07;;;;;;;3.70;76.88;92737.25;5050274;28;20186;-76
2022/01/04 06:51:42;;;;;;;11.80;11.10;;;;;;;3.84;76.45;92735.94;5048203;28;20293;-72
2022/01/04 06:54:10;;;;;;;15.20;13.67;;;;;;;4.18;74.94;92734.91;5049229;28;20197;-73
2022/01/04 06:56:36;;;;;;;15.77;13.73;;;;;;;4.50;72.66;92735.88;5050539;28;20249;-73
2022/01/04 06:59:03;;;;;;;17.13;15.07;;;;;;;4.47;72.53;92731.19;5031596;28;20194;-73
2022/01/04 07:01:29;;;;;;;16.97;14.93;;;;;;;3.94;75.58;92738.66;5049395;28;20803;-73
2022/01/04 07:03:54;;;;;;;17.73;15.90;;;;;;;3.65;77.50;92719.09;5046341;28;20205;-72
2022/01/04 07:06:20;;;;;;;17.53;15.83;;;;;;;3.85;78.20;92737.50;5045076;28;20221;-73
2022/01/04 07:08:45;;;;;;;16.53;14.83;;;;;;;3.60;78.66;92725.97;5049379;28;20178;-73
2022/01/04 07:11:11;;;;;;;17.43;15.73;;;;;;;3.74;78.81;92738.34;5029754;28;20230;-73
2022/01/04 07:13:36;;;;;;;18.43;16.40;;;;;;;4.07;76.67;92728.03;5049919;28;20199;-74
2022/01/04 07:16:02;;;;;;;20.73;17.87;;;;;;;4.34;74.28;92700.50;5048754;28;20226;-74
2022/01/04 07:18:27;;;;;;;19.87;17.47;;;;;;;4.50;74.10;92737.66;5049657;28;21836;-75
2022/01/04 07:20:53;;;;;;;22.07;17.67;;;;;;;4.75;74.01;92748.34;5047319;28;20244;-74
2022/01/04 07:23:18;;;;;;;20.67;18.67;;;;;;;4.82;73.24;92747.13;5045528;28;20202;-75
2022/01/04 07:25:44;;;;;;;20.53;17.90;;;;;;;4.23;76.26;92719.50;5048730;28;20226;-73
2022/01/04 07:28:10;;;;;;;20.40;17.83;;;;;;;4.37;77.06;92741.38;5042952;28;20304;-73
2022/01/04 07:30:36;;;;;;;18.83;16.73;;;;;;;4.38;77.59;92730.03;5048117;28;20293;-74
2022/01/04 07:33:02;;;;;;;18.60;16.77;;;;;;;5.01;74.45;92739.09;5048450;28;20194;-74
2022/01/04 07:35:27;;;;;;;17.47;15.97;;;;;;;4.98;74.45;92737.75;5049310;28;20179;-73
2022/01/04 07:37:53;;;;;;;20.00;17.60;;;;;;;4.85;74.96;92726.00;5049333;28;20233;-74
2022/01/04 07:40:20;;;;;;;19.30;17.30;;;;;;;5.12;73.71;92743.38;5046986;28;20186;-73
2022/01/04 07:42:46;;;;;;;18.40;16.60;;;;;;;5.06;73.11;92726.22;5047940;28;20186;-72
2022/01/04 07:45:11;;;;;;;18.00;15.97;;;;;;;5.32;72.08;92746.16;5046817;28;20225;-74
2022/01/04 07:47:37;;;;;;;16.83;15.43;;;;;;;5.34;72.65;92738.97;5047328;28;20205;-72
2022/01/04 07:50:04;;;;;;;21.83;17.43;;;;;;;5.17;73.77;92731.25;5049393;28;20206;-75
2022/01/04 07:52:29;;;;;;;19.30;17.27;;;;;;;5.25;72.82;92720.47;5044902;28;20233;-71
2022/01/04 07:54:55;;;;;;;20.53;18.37;;;;;;;5.42;73.07;92730.72;5050170;28;20194;-73
2022/01/04 07:57:20;;;;;;;26.63;18.70;;;;;;;5.52;73.89;92733.44;5045697;28;20229;-70
2022/01/04 07:59:46;;;;;;;32.40;20.67;;;;;;;5.51;73.46;92747.41;5049548;28;20748;-71
2022/01/04 08:02:11;;;;;;;27.10;22.03;;;;;;;5.00;75.22;92730.53;5046326;28;20380;-72
2022/01/04 08:04:37;;;;;;;44.13;23.40;;;;;;;5.08;75.50;92742.25;5049299;28;20202;-71
2022/01/04 08:07:02;;;;;;;46.00;23.93;;;;;;;5.16;76.23;92744.44;5047312;28;20245;-70
2022/01/04 08:09:29;;;;;;;37.50;23.90;;;;;;;4.94;77.18;92718.56;5046193;28;20218;-71
2022/01/04 08:11:55;;;;;;;28.63;24.60;;;;;;;4.81;78.13;92737.81;5030884;28;20225;-75
2022/01/04 08:14:20;;;;;;;32.50;23.43;;;;;;;4.73;79.02;92733.06;5046302;28;20190;-74
2022/01/04 08:16:46;;;;;;;37.13;25.37;;;;;;;4.84;78.10;92732.16;5046947;28;20226;-74
2022/01/04 08:19:11;;;;;;;39.07;24.30;;;;;;;4.78;78.79;92727.16;5047151;28;20183;-73
2022/01/04 08:21:37;;;;;;;44.70;25.90;;;;;;;5.10;77.80;92735.06;5047245;28;20225;-72
2022/01/04 08:24:02;;;;;;;43.03;26.47;;;;;;;5.14;77.93;92736.91;5048668;28;20196;-75
2022/01/04 08:26:28;;;;;;;34.43;25.97;;;;;;;5.17;78.00;92731.25;5044016;28;20237;-75
2022/01/04 08:28:54;;;;;;;36.00;25.47;;;;;;;5.05;77.75;92709.13;5046445;28;20261;-76
2022/01/04 08:31:20;;;;;;;35.83;25.03;;;;;;;5.29;77.56;92731.91;5048172;28;20229;-74
2022/01/04 08:33:45;;;;;;;35.00;26.40;;;;;;;5.18;77.83;92727.66;5047752;28;20198;-75
2022/01/04 08:36:11;;;;;;;42.47;25.80;;;;;;;5.11;78.17;92713.31;5047457;28;20759;-74
2022/01/04 08:38:39;;;;;;;32.67;26.27;;;;;;;5.44;77.74;92731.28;5043276;28;20694;-74
2022/01/04 08:41:05;;;;;;;34.80;27.40;;;;;;;5.46;77.59;92729.22;5047540;28;20229;-74
2022/01/04 08:43:30;;;;;;;37.03;27.83;;;;;;;5.19;79.35;92712.91;5045587;28;20212;-73
2022/01/04 08:45:56;;;;;;;31.97;26.63;;;;;;;5.08;78.99;92693.09;5047018;28;20228;-75
2022/01/04 08:48:21;;;;;;;40.60;28.50;;;;;;;5.05;79.75;92706.53;5047857;28;20197;-75
2022/01/04 08:50:48;;;;;;;40.30;30.40;;;;;;;5.36;79.47;92713.59;5045466;28;20229;-74
2022/01/04 08:53:14;;;;;;;39.70;29.80;;;;;;;5.28;78.82;92714.81;5030681;28;20241;-74
2022/01/04 08:55:40;;;;;;;40.33;30.83;;;;;;;5.15;78.61;92715.22;5044666;28;20249;-75
2022/01/04 08:58:07;;;;;;;44.33;30.83;;;;;;;5.29;78.44;92720.78;5048323;28;20208;-75
2022/01/04 09:00:33;;;;;;;47.57;32.70;;;;;;;5.33;78.21;92724.44;5027518;28;20240;-75
2022/01/04 09:03:00;;;;;;;42.43;30.27;;;;;;;5.22;78.11;92712.41;5045907;28;20194;-73
2022/01/04 09:05:26;;;;;;;44.27;32.63;;;;;;;5.11;77.58;92697.78;5046481;28;20205;-76
2022/01/04 09:07:52;;;;;;;44.10;33.30;;;;;;;5.42;77.27;92722.97;5045239;28;20185;-75
2022/01/04 09:10:18;;;;;;;45.77;32.23;;;;;;;5.41;76.80;92718.81;5046454;28;20213;-76
2022/01/04 09:13:00;;;;;;;49.60;30.60;;;;;;;5.37;77.43;92715.16;5044657;28;20202;-76
2022/01/04 09:20:39;;;;;;;44.90;34.30;;;;;;;4.86;78.91;92673.22;5045955;28;20244;-75
2022/01/04 09:23:05;;;;;;;46.17;33.97;;;;;;;5.04;78.96;92681.69;5047758;28;20284;-77
2022/01/04 09:25:31;;;;;;;52.40;33.97;;;;;;;5.20;78.54;92678.25;5044517;28;20233;-75
2022/01/04 09:27:57;;;;;;;44.73;35.13;;;;;;;5.63;77.11;92678.13;5046333;28;20228;-75
2022/01/04 09:30:23;;;;;;;49.80;33.23;;;;;;;5.38;78.02;92668.34;5044952;28;20206;-73
2022/01/04 09:32:48;;;;;;;44.70;34.80;;;;;;;5.30;77.74;92639.50;5045512;28;20194;-75
2022/01/04 09:35:14;;;;;;;48.77;32.77;;;;;;;5.46;77.46;92646.38;5046719;28;20189;-75
2022/01/04 09:37:40;;;;;;;49.37;33.40;;;;;;;5.62;77.02;92648.09;5045179;28;20209;-74
2022/01/04 09:40:06;;;;;;;47.47;35.27;;;;;;;5.74;76.49;92638.31;5046335;28;20229;-75
2022/01/04 09:42:33;;;;;;;50.83;33.90;;;;;;;5.86;76.48;92646.72;5045481;28;20229;-74
2022/01/04 09:44:59;;;;;;;45.10;34.03;;;;;;;5.86;76.34;92620.81;5046153;28;20186;-74
2022/01/04 09:47:24;;;;;;;50.50;35.50;;;;;;;5.85;75.64;92604.50;5047083;28;20241;-75
2022/01/04 09:49:50;;;;;;;45.13;32.43;;;;;;;5.83;75.05;92598.81;5046611;28;20214;-75
2022/01/04 09:52:21;;;;;;;45.20;32.53;;;;;;;6.08;75.46;92629.25;5051701;28;20292;-75
2022/01/04 09:54:51;;;;;;;39.23;31.67;;;;;;;6.29;74.44;92625.72;5050249;28;20218;-74
2022/01/04 09:57:17;;;;;;;41.17;30.67;;;;;;;6.22;73.62;92600.06;5050365;28;20241;-74
2022/01/04 09:59:43;;;;;;;40.47;28.83;;;;;;;6.31;73.53;92615.91;5051432;28;20194;-73
2022/01/04 10:02:14;;;;;;;35.57;28.00;;;;;;;6.17;73.50;92623.34;5033213;28;20230;-74
2022/01/04 10:04:39;;;;;;;37.63;27.93;;;;;;;6.17;73.23;92619.97;5051723;28;20273;-74
2022/01/04 10:07:07;;;;;;;28.20;24.43;;;;;;;6.12;72.99;92618.13;5047524;28;20210;-74
2022/01/04 10:09:45;;;;;;;29.83;23.13;;;;;;;6.15;73.04;92599.50;5046676;28;20237;-76
2022/01/04 10:12:14;;;;;;;29.87;25.03;;;;;;;6.37;72.30;92596.75;5051080;28;20253;-75
2022/01/04 10:14:43;;;;;;;25.37;22.77;;;;;;;6.58;71.54;92593.97;5049556;28;20186;-75
2022/01/04 10:17:19;;;;;;;31.90;25.77;;;;;;;6.74;70.57;92587.00;5050783;28;20225;-75
2022/01/04 10:19:51;;;;;;;30.43;24.90;;;;;;;6.58;70.78;92560.25;5049143;28;20194;-75
2022/01/04 10:22:35;;;;;;;35.33;28.30;;;;;;;6.82;70.30;92573.56;5041002;28;20234;-74
2022/01/04 10:25:00;;;;;;;38.60;27.13;;;;;;;6.92;70.65;92583.16;5029751;28;20199;-75
2022/01/04 10:27:47;;;;;;;35.03;28.17;;;;;;;6.84;70.87;92571.47;5029619;28;20223;-76
2022/01/04 10:30:27;;;;;;;31.27;25.20;;;;;;;6.86;70.29;92574.63;5028212;28;20225;-75
2022/01/04 10:32:58;;;;;;;27.20;23.93;;;;;;;6.92;69.66;92578.78;5031478;28;20892;-76
2022/01/04 10:35:23;;;;;;;32.23;26.47;;;;;;;6.97;70.24;92573.59;5026406;28;20203;-76
2022/01/04 10:37:49;;;;;;;32.03;26.43;;;;;;;7.06;70.13;92572.06;5029925;28;20193;-76
2022/01/04 10:40:15;;;;;;;32.23;25.70;;;;;;;7.00;69.02;92554.91;5027168;28;20222;-76
2022/01/04 10:42:41;;;;;;;30.60;25.67;;;;;;;6.84;68.85;92553.31;5029289;28;20313;-76
2022/01/04 10:45:42;;;;;;;35.20;25.67;;;;;;;7.22;68.07;92562.47;5029327;28;20195;-75
2022/01/04 10:48:15;;;;;;;30.27;24.87;;;;;;;7.34;67.50;92555.97;5007660;28;20246;-78
2022/01/04 10:50:42;;;;;;;28.93;25.50;;;;;;;7.33;67.34;92557.00;5028838;28;20237;-78
2022/01/04 10:53:18;;;;;;;30.60;25.43;;;;;;;7.25;68.27;92549.75;5028705;28;20217;-76
2022/01/04 10:55:46;;;;;;;32.93;23.80;;;;;;;7.19;67.39;92517.00;5026774;28;20278;-77
2022/01/04 10:58:21;;;;;;;34.77;24.13;;;;;;;7.38;67.48;92561.41;5030447;28;20187;-76
2022/01/04 11:00:52;;;;;;;29.77;23.73;;;;;;;7.51;66.76;92550.50;5027780;28;20241;-76
2022/01/04 11:03:23;;;;;;;32.20;23.03;;;;;;;7.37;66.47;92532.09;5029668;28;20225;-76
2022/01/04 11:05:55;;;;;;;30.17;24.07;;;;;;;7.48;66.15;92545.84;5039871;28;20230;-76
2022/01/04 11:08:21;;;;;;;31.20;24.60;;;;;;;7.39;66.76;92527.38;5028553;28;20246;-76
2022/01/04 11:10:49;;;;;;;32.73;25.90;;;;;;;7.47;67.22;92550.25;5030520;28;20226;-76
2022/01/04 11:13:14;;;;;;;30.40;26.53;;;;;;;7.54;67.08;92540.38;5029007;28;20199;-75
2022/01/04 11:15:40;;;;;;;33.20;26.30;;;;;;;7.44;67.57;92530.00;5029631;28;20234;-76
2022/01/04 11:18:06;;;;;;;37.27;28.50;;;;;;;7.34;67.78;92530.00;5031278;28;20191;-77
2022/01/04 11:20:32;;;;;;;36.33;26.03;;;;;;;7.66;66.92;92548.69;5027216;28;20233;-77
2022/01/04 11:23:00;;;;;;;33.33;25.93;;;;;;;7.77;66.82;92545.03;5045497;28;20235;-76
2022/01/04 11:25:28;;;;;;;32.83;25.17;;;;;;;7.51;67.74;92520.13;5048508;28;20182;-76
2022/01/04 11:27:55;;;;;;;30.27;24.33;;;;;;;7.40;68.05;92503.00;5046931;28;20190;-76
2022/01/04 11:30:35;;;;;;;31.60;23.93;;;;;;;7.57;67.18;92529.47;5048897;28;20218;-76
2022/01/04 11:33:09;;;;;;;29.53;24.53;;;;;;;7.62;67.97;92521.69;5047547;28;20190;-76
2022/01/04 11:35:35;;;;;;;30.00;23.90;;;;;;;7.91;65.89;92527.06;5046675;28;20236;-77
2022/01/04 11:38:00;;;;;;;29.17;23.77;;;;;;;7.89;66.44;92531.75;5045372;28;20175;-76
2022/01/04 11:40:29;;;;;;;33.30;23.87;;;;;;;7.69;67.49;92506.59;5030577;28;20186;-75